Time;durP1;ratioP1;P1;durP2;ratioP2;P2;SDS_P1;SDS_P2;PMS_P1;PMS_P2;Temp;Humidity;BMP_temperature;BMP_pressure;BME280_temperature;BME280_humidity;BME280_pressure;Samples;Min_cycle;Max_cycle;Signal;HPM_P1;HPM_P2
2022/10/31 00:00:08;;;;;;;1.45;0.95;;;13.10;93.30;;;;;;5113849;28;20035;-73
2022/10/31 00:02:34;;;;;;;1.00;0.85;;;13.00;93.30;;;;;;5113624;28;20035;-73
2022/10/31 00:04:59;;;;;;;1.58;0.80;;;13.00;93.30;;;;;;5113876;28;20048;-73
2022/10/31 00:07:25;;;;;;;1.40;1.10;;;12.90;93.30;;;;;;5113686;28;20040;-73
2022/10/31 00:09:51;;;;;;;0.95;0.90;;;12.90;93.40;;;;;;5113801;28;20035;-72
2022/10/31 00:12:16;;;;;;;1.00;0.90;;;12.90;93.40;;;;;;5113594;28;20110;-73
2022/10/31 00:14:42;;;;;;;1.90;0.80;;;12.80;93.40;;;;;;5113398;28;20040;-73
2022/10/31 00:17:08;;;;;;;1.42;1.02;;;12.80;93.40;;;;;;5113739;28;20401;-73
2022/10/31 00:19:36;;;;;;;1.80;1.10;;;12.80;93.40;;;;;;5113298;28;20497;-73
2022/10/31 00:22:02;;;;;;;1.20;1.00;;;12.80;93.40;;;;;;5113694;28;20484;-73
2022/10/31 00:24:28;;;;;;;1.83;1.25;;;12.80;93.40;;;;;;5113503;28;20043;-73
2022/10/31 00:26:53;;;;;;;2.05;1.17;;;12.80;93.40;;;;;;5113429;28;20070;-73
2022/10/31 00:29:19;;;;;;;2.17;1.30;;;12.70;93.40;;;;;;5113232;28;20582;-73
2022/10/31 00:31:45;;;;;;;1.73;1.10;;;12.70;93.40;;;;;;5095046;28;20078;-73
2022/10/31 00:34:11;;;;;;;1.20;0.95;;;12.70;93.40;;;;;;5095329;28;20048;-73
2022/10/31 00:36:36;;;;;;;1.33;1.02;;;12.60;93.30;;;;;;5113478;28;20035;-73
2022/10/31 00:39:02;;;;;;;1.25;0.90;;;12.60;93.30;;;;;;5094797;28;20113;-73
2022/10/31 00:41:29;;;;;;;1.80;1.27;;;12.60;93.30;;;;;;5112830;28;20043;-73
2022/10/31 00:43:55;;;;;;;1.80;1.17;;;12.60;93.40;;;;;;5113386;28;20039;-73
2022/10/31 00:46:20;;;;;;;1.50;1.10;;;12.60;93.40;;;;;;5113147;28;20047;-73
2022/10/31 00:48:46;;;;;;;1.35;0.95;;;12.50;93.30;;;;;;5112912;28;20042;-73
2022/10/31 00:51:12;;;;;;;1.73;1.13;;;12.50;93.30;;;;;;5094714;28;20039;-73
2022/10/31 00:53:38;;;;;;;2.25;1.25;;;12.50;93.30;;;;;;5113184;28;20470;-73
2022/10/31 00:56:04;;;;;;;1.65;1.05;;;12.50;93.30;;;;;;5113198;28;20031;-73
2022/10/31 00:58:30;;;;;;;1.35;1.05;;;12.50;93.30;;;;;;5113015;28;20080;-74
2022/10/31 01:00:55;;;;;;;1.67;1.23;;;12.40;93.30;;;;;;5113246;28;20481;-73
2022/10/31 01:03:23;;;;;;;1.35;1.10;;;12.40;93.30;;;;;;5113330;28;20035;-73
2022/10/31 01:06:01;;;;;;;1.02;0.85;;;12.40;93.30;;;;;;5094486;28;20395;-73
2022/10/31 01:08:28;;;;;;;1.58;1.13;;;12.30;93.30;;;;;;5094656;28;20031;-73
2022/10/31 01:11:19;;;;;;;2.53;1.17;;;12.30;93.30;;;;;;5112533;28;20042;-73
2022/10/31 01:13:46;;;;;;;1.05;0.93;;;12.30;93.30;;;;;;5097045;28;20038;-73
2022/10/31 01:16:14;;;;;;;1.92;1.00;;;12.30;93.30;;;;;;5112449;28;20136;-73
2022/10/31 01:18:40;;;;;;;1.33;1.02;;;12.30;93.30;;;;;;5113057;28;20047;-73
2022/10/31 01:21:09;;;;;;;1.63;1.10;;;12.30;93.30;;;;;;5112590;28;20047;-73
2022/10/31 01:23:35;;;;;;;1.58;1.20;;;12.30;93.30;;;;;;5112880;28;20032;-73
2022/10/31 01:26:05;;;;;;;1.30;1.00;;;12.30;93.30;;;;;;5094259;28;20431;-73
2022/10/31 01:28:31;;;;;;;1.73;1.17;;;12.20;93.30;;;;;;5108899;28;20089;-73
2022/10/31 01:31:01;;;;;;;1.00;0.90;;;12.20;93.30;;;;;;5112224;28;20032;-73
2022/10/31 01:33:27;;;;;;;1.27;0.98;;;12.20;93.30;;;;;;5112281;28;20164;-73
2022/10/31 01:35:53;;;;;;;1.20;0.90;;;12.10;93.30;;;;;;5112719;28;20123;-73
2022/10/31 01:38:18;;;;;;;1.00;0.90;;;12.20;93.30;;;;;;5094125;28;20044;-73
2022/10/31 01:40:44;;;;;;;0.90;0.80;;;12.10;93.30;;;;;;5094032;28;20507;-73
2022/10/31 01:43:13;;;;;;;2.50;1.08;;;12.10;93.30;;;;;;5093351;28;20086;-73
2022/10/31 01:45:40;;;;;;;1.40;1.00;;;12.20;93.30;;;;;;5093808;28;20516;-73
2022/10/31 01:48:13;;;;;;;1.13;0.95;;;12.10;93.30;;;;;;5112080;28;20039;-74
2022/10/31 01:50:39;;;;;;;1.45;0.93;;;12.10;93.30;;;;;;5112148;28;20120;-73
2022/10/31 01:53:08;;;;;;;1.50;1.00;;;12.10;93.30;;;;;;5111903;28;20491;-74
2022/10/31 01:55:39;;;;;;;1.58;1.10;;;12.10;93.30;;;;;;5108565;28;20131;-73
2022/10/31 01:58:08;;;;;;;0.95;0.80;;;12.10;93.20;;;;;;5092215;28;20046;-73
2022/10/31 02:00:34;;;;;;;1.40;0.90;;;12.10;93.20;;;;;;5112223;28;20043;-73
2022/10/31 02:03:00;;;;;;;0.95;0.82;;;12.10;93.20;;;;;;5112215;28;20039;-73
2022/10/31 02:05:29;;;;;;;1.25;1.00;;;12.00;93.20;;;;;;5112256;28;20477;-73
2022/10/31 02:08:11;;;;;;;1.67;1.10;;;12.10;93.30;;;;;;5092326;28;20051;-73
2022/10/31 02:10:37;;;;;;;1.48;0.82;;;12.00;93.20;;;;;;5093563;28;20032;-73
2022/10/31 02:13:06;;;;;;;1.02;0.90;;;12.00;93.20;;;;;;5112036;28;20505;-73
2022/10/31 02:15:32;;;;;;;1.50;1.08;;;12.00;93.30;;;;;;5112302;28;20156;-73
2022/10/31 02:17:59;;;;;;;1.23;0.90;;;12.00;93.30;;;;;;5111757;28;20458;-73
2022/10/31 02:20:36;;;;;;;1.10;0.82;;;12.00;93.30;;;;;;5092078;28;20044;-73
2022/10/31 02:23:36;;;;;;;1.40;1.05;;;12.00;93.30;;;;;;5111698;28;20047;-73
2022/10/31 02:26:22;;;;;;;1.33;1.00;;;12.00;93.20;;;;;;5110985;28;20040;-74
2022/10/31 02:29:22;;;;;;;1.88;1.10;;;12.00;93.20;;;;;;5111541;28;20426;-73
2022/10/31 02:32:01;;;;;;;1.20;0.80;;;11.90;93.20;;;;;;5111441;28;20131;-73
2022/10/31 02:34:47;;;;;;;1.38;0.95;;;11.90;93.20;;;;;;5109236;28;20031;-73
2022/10/31 02:37:22;;;;;;;1.17;0.85;;;12.00;93.30;;;;;;5109864;28;20462;-73
2022/10/31 02:40:01;;;;;;;1.38;0.90;;;11.90;93.30;;;;;;5111439;28;20040;-73
2022/10/31 02:42:50;;;;;;;1.15;0.85;;;11.90;93.20;;;;;;5111480;28;20031;-73
2022/10/31 02:45:31;;;;;;;1.90;0.95;;;11.90;93.30;;;;;;5111403;28;20040;-73
2022/10/31 02:48:03;;;;;;;0.90;0.80;;;11.90;93.30;;;;;;5111718;28;20042;-74
2022/10/31 02:50:33;;;;;;;2.03;1.05;;;11.80;93.30;;;;;;5111333;28;20044;-73
2022/10/31 02:53:00;;;;;;;1.20;0.80;;;11.80;93.30;;;;;;5111706;28;20047;-73
2022/10/31 02:55:50;;;;;;;1.30;0.85;;;11.80;93.20;;;;;;5093108;28;20051;-73
2022/10/31 02:58:20;;;;;;;1.80;1.10;;;11.80;93.20;;;;;;5111664;28;20127;-73
2022/10/31 03:00:59;;;;;;;2.05;1.13;;;11.70;93.20;;;;;;5111521;28;20043;-73
2022/10/31 03:03:42;;;;;;;1.10;1.00;;;11.80;93.30;;;;;;5111994;28;20035;-74
2022/10/31 03:06:17;;;;;;;1.38;1.00;;;11.70;93.30;;;;;;5114624;28;20123;-73
2022/10/31 03:09:03;;;;;;;1.10;0.85;;;11.70;93.30;;;;;;5114712;28;20039;-73
2022/10/31 03:11:38;;;;;;;1.95;1.10;;;11.70;93.30;;;;;;5096666;28;20051;-74
2022/10/31 03:14:11;;;;;;;0.75;0.75;;;11.70;93.30;;;;;;5114380;28;20100;-73
2022/10/31 03:16:48;;;;;;;1.67;0.95;;;11.60;93.30;;;;;;5114253;28;20044;-74
2022/10/31 03:19:23;;;;;;;1.27;1.00;;;11.60;93.30;;;;;;5111616;28;20036;-74
2022/10/31 03:21:57;;;;;;;1.33;0.90;;;11.50;93.30;;;;;;5096395;28;20069;-74
2022/10/31 03:24:30;;;;;;;2.25;1.20;;;11.50;93.30;;;;;;5114916;28;20035;-73
2022/10/31 03:26:59;;;;;;;1.25;0.90;;;11.50;93.30;;;;;;5110396;28;20038;-73
2022/10/31 03:29:30;;;;;;;1.38;1.00;;;11.50;93.30;;;;;;5114296;28;20124;-73
2022/10/31 03:32:00;;;;;;;1.45;0.95;;;11.40;93.30;;;;;;5096560;28;20045;-73
2022/10/31 03:34:28;;;;;;;1.08;0.93;;;11.40;93.30;;;;;;5114665;28;20431;-73
2022/10/31 03:36:58;;;;;;;1.92;1.02;;;11.40;93.40;;;;;;5113899;28;20043;-73
2022/10/31 03:39:25;;;;;;;1.83;1.10;;;11.40;93.40;;;;;;5114097;28;20028;-73
2022/10/31 03:42:05;;;;;;;1.13;1.00;;;11.30;93.40;;;;;;5114340;28;20036;-74
2022/10/31 03:44:34;;;;;;;1.02;0.85;;;11.30;93.40;;;;;;5111057;28;20096;-73
2022/10/31 03:47:00;;;;;;;1.10;0.80;;;11.20;93.40;;;;;;5110421;28;20070;-73
2022/10/31 03:49:27;;;;;;;1.25;1.10;;;11.20;93.40;;;;;;5114087;28;20478;-74
2022/10/31 03:52:02;;;;;;;1.02;0.88;;;11.20;93.40;;;;;;5113976;28;20500;-73
2022/10/31 03:54:44;;;;;;;0.88;0.80;;;11.20;93.40;;;;;;5095526;28;20035;-74
2022/10/31 03:57:27;;;;;;;1.05;0.85;;;11.10;93.40;;;;;;5113023;28;20046;-74
2022/10/31 04:00:04;;;;;;;1.73;1.10;;;11.20;93.40;;;;;;5113659;28;20553;-73
2022/10/31 04:02:33;;;;;;;1.25;1.00;;;11.10;93.40;;;;;;5114161;28;20035;-73
2022/10/31 04:05:00;;;;;;;1.42;0.98;;;11.10;93.40;;;;;;5114060;28;20073;-73
2022/10/31 04:07:31;;;;;;;1.25;0.98;;;11.10;93.40;;;;;;5114041;28;20545;-73
2022/10/31 04:09:58;;;;;;;;;;;11.10;93.40;;;;;;5114298;28;20043;-73
2022/10/31 04:12:27;;;;;;;1.27;0.90;;;11.10;93.40;;;;;;5113650;28;19934;-73
2022/10/31 04:14:55;;;;;;;1.00;0.90;;;11.00;93.40;;;;;;5113498;28;20496;-73
2022/10/31 04:17:27;;;;;;;1.35;0.88;;;11.00;93.40;;;;;;5078723;28;20035;-73
2022/10/31 04:19:52;;;;;;;1.50;0.93;;;11.00;93.40;;;;;;5114107;28;20413;-73
2022/10/31 04:22:18;;;;;;;1.40;0.98;;;10.80;93.30;;;;;;5113675;28;20044;-74
2022/10/31 04:24:44;;;;;;;1.83;1.00;;;10.90;93.30;;;;;;5113663;28;20468;-74
2022/10/31 04:27:10;;;;;;;1.23;1.00;;;10.90;93.30;;;;;;5113603;28;20512;-74
2022/10/31 04:29:36;;;;;;;0.90;0.80;;;10.90;93.30;;;;;;5113613;28;20073;-74
2022/10/31 04:32:02;;;;;;;1.13;0.90;;;10.90;93.30;;;;;;5113387;28;20035;-74
2022/10/31 04:34:27;;;;;;;1.80;1.13;;;10.80;93.30;;;;;;5113409;28;20983;-74
2022/10/31 04:36:53;;;;;;;1.70;0.90;;;10.80;93.40;;;;;;5113215;28;20135;-74
2022/10/31 04:39:19;;;;;;;1.30;1.00;;;10.80;93.30;;;;;;5113276;28;20075;-74
2022/10/31 04:41:45;;;;;;;3.60;1.17;;;10.80;93.30;;;;;;5113675;28;20044;-73
2022/10/31 04:44:10;;;;;;;2.80;1.00;;;10.80;93.30;;;;;;5113520;28;20118;-74
2022/10/31 04:46:36;;;;;;;1.77;1.20;;;10.80;93.30;;;;;;5094838;28;20557;-73
2022/10/31 04:49:02;;;;;;;1.25;1.00;;;10.80;93.30;;;;;;5094836;28;20040;-74
2022/10/31 04:51:30;;;;;;;1.20;1.00;;;10.80;93.30;;;;;;5113222;28;20042;-74
2022/10/31 04:53:56;;;;;;;1.33;1.02;;;10.80;93.30;;;;;;5094606;28;20048;-74
2022/10/31 04:56:22;;;;;;;1.40;1.00;;;10.70;93.30;;;;;;5113198;28;20130;-74
2022/10/31 04:58:47;;;;;;;1.98;1.20;;;10.70;93.30;;;;;;5113364;28;20044;-74
2022/10/31 05:01:13;;;;;;;1.90;1.08;;;10.70;93.60;;;;;;5094346;28;20044;-74
2022/10/31 05:03:39;;;;;;;1.90;1.15;;;10.70;93.30;;;;;;5113257;28;20039;-74
2022/10/31 05:06:06;;;;;;;1.10;0.85;;;10.70;93.30;;;;;;5113294;28;20062;-74
2022/10/31 05:08:32;;;;;;;1.25;0.90;;;10.80;93.40;;;;;;5113595;28;20092;-74
2022/10/31 05:11:04;;;;;;;2.00;0.95;;;10.70;93.30;;;;;;5113153;28;20036;-74
2022/10/31 05:13:30;;;;;;;1.52;1.10;;;10.60;93.30;;;;;;5113003;28;20031;-73
2022/10/31 05:15:56;;;;;;;1.55;1.20;;;10.60;93.30;;;;;;5113400;28;20470;-73
2022/10/31 05:18:22;;;;;;;1.85;1.20;;;10.60;93.30;;;;;;5113080;28;20119;-74
2022/10/31 05:20:48;;;;;;;1.92;1.25;;;10.50;93.30;;;;;;5094528;28;20052;-74
2022/10/31 05:23:14;;;;;;;1.38;1.00;;;10.50;93.30;;;;;;5113282;28;20031;-74
2022/10/31 05:25:40;;;;;;;1.92;1.17;;;10.50;93.30;;;;;;5113201;28;20063;-74
2022/10/31 05:28:07;;;;;;;1.63;1.15;;;10.50;93.30;;;;;;5094583;28;20040;-73
2022/10/31 05:30:33;;;;;;;1.55;1.10;;;10.50;93.40;;;;;;5112739;28;20048;-74
2022/10/31 05:33:00;;;;;;;1.05;0.95;;;10.50;93.30;;;;;;5112695;28;20134;-74
2022/10/31 05:35:28;;;;;;;1.50;1.00;;;10.60;93.30;;;;;;5094968;28;20043;-74
2022/10/31 05:37:54;;;;;;;1.50;1.02;;;10.60;93.20;;;;;;5092342;28;20048;-74
2022/10/31 05:40:21;;;;;;;1.83;1.02;;;10.60;93.30;;;;;;5094700;28;20055;-73
2022/10/31 05:42:50;;;;;;;1.63;1.08;;;10.60;93.20;;;;;;5112606;28;20035;-74
2022/10/31 05:45:18;;;;;;;1.77;1.10;;;10.60;93.20;;;;;;5112723;28;20474;-74
2022/10/31 05:47:51;;;;;;;0.95;0.73;;;10.60;93.20;;;;;;5112936;28;20048;-74
2022/10/31 05:50:17;;;;;;;1.60;1.00;;;10.50;93.20;;;;;;5112735;28;20039;-73
2022/10/31 05:52:43;;;;;;;1.63;1.13;;;10.60;93.20;;;;;;5112928;28;20093;-74
2022/10/31 05:55:09;;;;;;;2.05;1.00;;;10.60;93.30;;;;;;5112364;28;20385;-74
2022/10/31 05:57:34;;;;;;;1.63;0.90;;;10.60;93.20;;;;;;5094029;28;20062;-74
2022/10/31 06:00:00;;;;;;;1.67;1.05;;;10.60;93.20;;;;;;5112373;28;20452;-74
2022/10/31 06:02:26;;;;;;;1.55;1.00;;;10.60;93.20;;;;;;5112671;28;20481;-74
2022/10/31 06:04:52;;;;;;;1.58;1.08;;;10.60;93.20;;;;;;5094144;28;20489;-74
2022/10/31 06:07:18;;;;;;;1.20;1.00;;;10.60;93.20;;;;;;5092779;28;20100;-74
2022/10/31 06:09:44;;;;;;;1.23;0.90;;;10.50;93.10;;;;;;5112458;28;20063;-74
2022/10/31 06:12:10;;;;;;;1.67;1.10;;;10.60;93.20;;;;;;5112057;28;20070;-74
2022/10/31 06:14:35;;;;;;;2.58;1.50;;;10.60;93.20;;;;;;5112608;28;20049;-74
2022/10/31 06:17:01;;;;;;;1.90;1.23;;;10.50;93.20;;;;;;5112002;28;20051;-74
2022/10/31 06:19:27;;;;;;;2.75;1.30;;;10.50;93.20;;;;;;5093933;28;20036;-74
2022/10/31 06:21:52;;;;;;;1.95;1.20;;;10.50;93.20;;;;;;5094439;28;20469;-74
2022/10/31 06:24:18;;;;;;;2.33;1.05;;;10.50;93.20;;;;;;5094711;28;20035;-74
2022/10/31 06:26:44;;;;;;;1.40;1.10;;;10.50;93.20;;;;;;5112732;28;20043;-74
2022/10/31 06:29:10;;;;;;;1.33;0.90;;;10.40;93.20;;;;;;5112407;28;20512;-74
2022/10/31 06:31:35;;;;;;;1.85;1.20;;;10.50;93.20;;;;;;5112219;28;20050;-74
2022/10/31 06:34:01;;;;;;;1.88;1.08;;;10.50;93.20;;;;;;5112057;28;20040;-74
2022/10/31 06:36:27;;;;;;;1.70;1.10;;;10.40;93.20;;;;;;5111751;28;20043;-74
2022/10/31 06:38:53;;;;;;;2.03;1.02;;;10.60;93.30;;;;;;5112942;28;20066;-74
2022/10/31 06:41:18;;;;;;;1.40;1.00;;;10.50;93.20;;;;;;5115450;28;20363;-74
2022/10/31 06:43:47;;;;;;;1.15;1.00;;;10.50;93.50;;;;;;5115774;28;20081;-74
2022/10/31 06:46:12;;;;;;;1.23;1.02;;;10.50;93.20;;;;;;5097098;28;20067;-74
2022/10/31 06:48:41;;;;;;;1.48;1.10;;;10.50;93.20;;;;;;5097195;28;20116;-73
2022/10/31 06:51:07;;;;;;;1.60;1.10;;;10.50;93.20;;;;;;5115789;28;20402;-74
2022/10/31 06:53:32;;;;;;;1.33;0.95;;;10.50;93.20;;;;;;5095616;28;20095;-74
2022/10/31 06:55:58;;;;;;;2.03;1.20;;;10.50;93.20;;;;;;5115350;28;20138;-74
2022/10/31 06:58:24;;;;;;;1.40;1.10;;;10.50;93.20;;;;;;5097268;28;20036;-74
2022/10/31 07:00:50;;;;;;;1.17;0.80;;;10.60;93.20;;;;;;5115321;28;20038;-74
2022/10/31 07:03:16;;;;;;;1.55;1.10;;;10.50;93.10;;;;;;5115132;28;20126;-73
2022/10/31 07:05:42;;;;;;;1.30;0.90;;;10.60;93.20;;;;;;5097152;28;20051;-73
2022/10/31 07:08:12;;;;;;;1.77;1.00;;;10.70;93.20;;;;;;5115530;28;20047;-73
2022/10/31 07:10:39;;;;;;;1.42;0.93;;;10.60;93.10;;;;;;5114729;28;20053;-73
2022/10/31 07:13:10;;;;;;;1.10;0.90;;;10.60;93.10;;;;;;5115088;28;20075;-73
2022/10/31 07:15:38;;;;;;;1.05;0.90;;;10.60;93.10;;;;;;5114746;28;20048;-73
2022/10/31 07:18:06;;;;;;;1.40;0.90;;;10.60;93.10;;;;;;5114832;28;20067;-73
2022/10/31 07:20:32;;;;;;;1.80;1.10;;;10.70;93.10;;;;;;5115063;28;20048;-73
2022/10/31 07:22:58;;;;;;;1.70;1.08;;;10.80;93.10;;;;;;5114546;28;20066;-73
2022/10/31 07:25:25;;;;;;;2.17;1.10;;;10.70;93.00;;;;;;5114456;28;20481;-73
2022/10/31 07:27:51;;;;;;;1.55;1.00;;;10.80;93.00;;;;;;5114408;28;20085;-73
2022/10/31 07:30:18;;;;;;;0.93;0.70;;;10.90;93.00;;;;;;5114325;28;20400;-73
2022/10/31 07:32:45;;;;;;;1.83;0.90;;;10.90;93.00;;;;;;5114614;28;20116;-74
2022/10/31 07:35:14;;;;;;;1.33;0.80;;;10.90;92.90;;;;;;5114337;28;20386;-74
2022/10/31 07:37:39;;;;;;;1.25;0.80;;;11.00;92.90;;;;;;5114808;28;20071;-75
2022/10/31 07:40:07;;;;;;;1.63;1.00;;;11.00;92.90;;;;;;5114448;28;20071;-74
2022/10/31 07:42:42;;;;;;;0.80;0.80;;;11.00;92.90;;;;;;5095693;28;20051;-74
2022/10/31 07:45:10;;;;;;;1.27;1.05;;;11.10;92.90;;;;;;5094252;28;20398;-73
2022/10/31 07:47:45;;;;;;;2.00;1.02;;;11.20;92.90;;;;;;5113893;28;20050;-74
2022/10/31 07:50:13;;;;;;;1.60;1.10;;;11.20;92.90;;;;;;5095752;28;20039;-73
2022/10/31 07:52:39;;;;;;;1.15;1.00;;;11.20;92.80;;;;;;5114149;28;20080;-73
2022/10/31 07:55:06;;;;;;;1.48;1.00;;;11.30;92.80;;;;;;5113967;28;20085;-73
2022/10/31 07:57:32;;;;;;;1.45;0.90;;;11.40;93.10;;;;;;5078844;28;20036;-73
2022/10/31 07:59:58;;;;;;;1.30;1.00;;;11.40;92.80;;;;;;5077829;28;20040;-73
2022/10/31 08:02:25;;;;;;;0.77;0.77;;;11.50;92.80;;;;;;5078836;28;20100;-73
2022/10/31 08:04:50;;;;;;;1.38;1.05;;;11.50;92.70;;;;;;5114238;28;20051;-74
2022/10/31 08:07:17;;;;;;;0.95;0.77;;;11.60;92.70;;;;;;5095672;28;20043;-76
2022/10/31 08:09:42;;;;;;;1.60;0.73;;;11.60;92.70;;;;;;5114254;28;20493;-76
2022/10/31 08:12:10;;;;;;;1.17;0.88;;;11.70;92.70;;;;;;5114097;28;20076;-76
2022/10/31 08:14:36;;;;;;;1.42;0.90;;;11.80;92.70;;;;;;5078462;28;20040;-76
2022/10/31 08:17:02;;;;;;;1.25;0.88;;;11.80;92.60;;;;;;5114106;28;20054;-75
2022/10/31 08:19:30;;;;;;;0.75;0.68;;;11.90;92.60;;;;;;5096235;28;20050;-76
2022/10/31 08:21:56;;;;;;;1.17;0.95;;;11.90;92.60;;;;;;5093724;28;20040;-76
2022/10/31 08:24:22;;;;;;;1.35;0.90;;;12.10;92.60;;;;;;5113782;28;20501;-76
2022/10/31 08:26:47;;;;;;;1.52;0.80;;;12.00;92.60;;;;;;5078820;28;20115;-74
2022/10/31 08:29:14;;;;;;;1.48;1.00;;;12.10;92.60;;;;;;5114087;28;20040;-73
2022/10/31 08:31:41;;;;;;;1.60;1.00;;;12.20;92.60;;;;;;5113603;28;20046;-73
2022/10/31 08:34:06;;;;;;;1.10;0.80;;;12.20;92.50;;;;;;5113817;28;20036;-73
2022/10/31 08:36:32;;;;;;;1.92;1.20;;;12.20;92.50;;;;;;5095248;28;20046;-72
2022/10/31 08:38:58;;;;;;;1.45;1.02;;;12.30;92.50;;;;;;5078231;28;20379;-72
2022/10/31 08:41:24;;;;;;;1.38;0.98;;;12.30;92.50;;;;;;5113742;28;20089;-73
2022/10/31 08:43:50;;;;;;;1.42;0.93;;;12.40;92.50;;;;;;5078723;28;20426;-73
2022/10/31 08:46:16;;;;;;;2.65;1.20;;;12.40;92.50;;;;;;5095676;28;20493;-73
2022/10/31 08:48:41;;;;;;;1.63;1.10;;;12.40;92.50;;;;;;5113922;28;20035;-73
2022/10/31 08:51:09;;;;;;;1.30;1.00;;;12.50;92.50;;;;;;5095008;28;20051;-73
2022/10/31 08:53:35;;;;;;;1.88;1.30;;;12.50;92.50;;;;;;5093762;28;20043;-73
2022/10/31 08:56:01;;;;;;;1.60;1.17;;;12.60;92.50;;;;;;5113169;28;20043;-73
2022/10/31 08:58:27;;;;;;;2.40;1.50;;;12.70;92.50;;;;;;5113103;28;20043;-72
2022/10/31 09:00:54;;;;;;;2.10;1.33;;;12.80;92.50;;;;;;5093625;28;20039;-73
2022/10/31 09:03:24;;;;;;;1.90;1.20;;;12.90;92.40;;;;;;5112794;28;20105;-74
2022/10/31 09:05:53;;;;;;;2.57;1.67;;;13.00;92.40;;;;;;5095458;28;20114;-73
2022/10/31 09:08:19;;;;;;;2.03;1.25;;;13.00;92.30;;;;;;5113301;28;20047;-74
2022/10/31 09:10:45;;;;;;;2.90;1.20;;;13.20;92.30;;;;;;5113125;28;20035;-73
2022/10/31 09:13:15;;;;;;;2.08;1.20;;;13.20;92.30;;;;;;5113054;28;20097;-74
2022/10/31 09:15:43;;;;;;;1.98;1.20;;;13.20;92.20;;;;;;5078148;28;20047;-74
2022/10/31 09:18:10;;;;;;;2.10;1.38;;;13.40;92.30;;;;;;5094986;28;20043;-73
2022/10/31 09:20:37;;;;;;;1.92;1.20;;;13.40;92.20;;;;;;5112728;28;20034;-74
2022/10/31 09:23:06;;;;;;;1.67;1.10;;;13.40;92.20;;;;;;5094843;28;20043;-73
2022/10/31 09:25:34;;;;;;;2.05;1.50;;;13.50;92.20;;;;;;5094717;28;20123;-73
2022/10/31 09:28:01;;;;;;;2.00;1.20;;;13.60;92.20;;;;;;5112997;28;20070;-72
2022/10/31 09:30:29;;;;;;;2.47;1.55;;;13.70;92.20;;;;;;5113256;28;20538;-74
2022/10/31 09:33:04;;;;;;;2.28;1.20;;;13.80;92.10;;;;;;5094319;28;20052;-73
2022/10/31 09:35:30;;;;;;;2.60;1.50;;;13.80;92.10;;;;;;5112496;28;20071;-73
2022/10/31 09:38:01;;;;;;;2.58;1.35;;;13.90;92.10;;;;;;5112486;28;20047;-73
2022/10/31 09:40:39;;;;;;;2.60;1.42;;;14.00;92.10;;;;;;5112698;28;20116;-73
2022/10/31 09:43:33;;;;;;;2.35;1.40;;;14.00;92.10;;;;;;5094425;28;20040;-73
2022/10/31 09:46:29;;;;;;;1.85;1.30;;;14.10;92.00;;;;;;5097389;28;20040;-73
2022/10/31 09:49:18;;;;;;;2.63;1.20;;;14.20;92.00;;;;;;5112318;28;20039;-74
2022/10/31 09:51:51;;;;;;;2.67;1.67;;;14.30;92.00;;;;;;5092578;28;20058;-77
2022/10/31 09:54:38;;;;;;;2.47;1.60;;;14.40;92.00;;;;;;5033300;28;20044;-75
2022/10/31 09:57:08;;;;;;;1.63;1.30;;;14.50;92.00;;;;;;5049718;28;20045;-75
2022/10/31 09:59:38;;;;;;;2.25;1.50;;;14.50;91.90;;;;;;5050286;28;20037;-75
2022/10/31 10:02:13;;;;;;;3.22;1.80;;;14.60;92.00;;;;;;5033317;28;20041;-75
2022/10/31 10:04:56;;;;;;;2.00;1.42;;;14.50;91.90;;;;;;5049476;28;20045;-74
2022/10/31 10:07:46;;;;;;;2.25;1.35;;;14.60;92.00;;;;;;5049829;28;20048;-73
2022/10/31 10:10:17;;;;;;;2.78;1.58;;;14.70;92.00;;;;;;5035376;28;20124;-74
2022/10/31 10:13:06;;;;;;;2.17;1.40;;;14.70;92.00;;;;;;5050166;28;20088;-74
2022/10/31 10:16:06;;;;;;;2.45;1.55;;;14.80;92.00;;;;;;5052861;28;20614;-72
2022/10/31 10:18:50;;;;;;;2.25;1.38;;;14.90;92.00;;;;;;5052787;28;20083;-73
2022/10/31 10:21:48;;;;;;;2.92;1.75;;;14.90;91.90;;;;;;5036124;28;20041;-73
2022/10/31 10:24:30;;;;;;;2.45;1.55;;;15.00;91.90;;;;;;5060129;28;20132;-73
2022/10/31 10:27:16;;;;;;;2.90;1.63;;;15.10;91.90;;;;;;5112634;28;20050;-73
2022/10/31 10:29:55;;;;;;;2.90;1.67;;;15.10;91.90;;;;;;5100189;28;20096;-73
2022/10/31 10:32:26;;;;;;;2.63;1.50;;;15.10;91.90;;;;;;5115122;28;20078;-73
2022/10/31 10:34:59;;;;;;;2.67;1.50;;;15.30;91.90;;;;;;5098227;28;20036;-73
2022/10/31 10:37:32;;;;;;;2.35;1.45;;;15.20;91.90;;;;;;5115782;28;20505;-73
2022/10/31 10:40:14;;;;;;;3.28;1.83;;;15.20;91.90;;;;;;5115573;28;20485;-75
2022/10/31 10:48:14;;;;;;;3.45;1.80;;;15.30;91.90;;;;;;5115078;28;20047;-72
2022/10/31 10:50:47;;;;;;;2.45;1.58;;;15.30;92.00;;;;;;5114891;28;20040;-74
2022/10/31 10:53:34;;;;;;;3.25;1.75;;;15.30;92.00;;;;;;5115173;28;20039;-75
2022/10/31 10:56:22;;;;;;;3.63;1.70;;;15.30;92.00;;;;;;5115125;28;20066;-73
2022/10/31 10:58:48;;;;;;;2.08;1.33;;;15.30;92.00;;;;;;5112737;28;20118;-73
2022/10/31 11:01:15;;;;;;;2.80;1.33;;;15.50;92.00;;;;;;5115235;28;20032;-74
2022/10/31 11:03:41;;;;;;;2.15;1.60;;;15.50;92.00;;;;;;5115192;28;20062;-73
2022/10/31 11:06:25;;;;;;;2.58;1.42;;;15.50;91.90;;;;;;5096086;28;20582;-73
2022/10/31 11:08:52;;;;;;;2.10;1.50;;;15.70;91.90;;;;;;5113216;28;20119;-72
2022/10/31 11:11:25;;;;;;;2.30;1.40;;;15.80;91.80;;;;;;5114902;28;20170;-72
2022/10/31 11:13:59;;;;;;;3.05;1.80;;;15.80;91.80;;;;;;5115101;28;20035;-73
2022/10/31 11:16:34;;;;;;;3.75;1.63;;;15.80;91.80;;;;;;5114818;28;20454;-73
2022/10/31 11:19:15;;;;;;;2.45;1.50;;;15.90;91.80;;;;;;5078973;28;20392;-73
2022/10/31 11:21:42;;;;;;;3.45;1.88;;;15.90;91.80;;;;;;5097973;28;20036;-73
2022/10/31 11:24:18;;;;;;;3.30;1.48;;;15.90;91.70;;;;;;5095774;28;20031;-73
2022/10/31 11:26:47;;;;;;;2.58;1.38;;;15.90;91.70;;;;;;5079903;28;20401;-74
2022/10/31 11:29:24;;;;;;;3.10;1.90;;;16.00;91.70;;;;;;5114895;28;20089;-73
2022/10/31 11:31:53;;;;;;;2.42;1.40;;;16.10;91.70;;;;;;5111927;28;20412;-74
2022/10/31 11:34:44;;;;;;;3.47;1.80;;;16.10;91.70;;;;;;5115350;28;20043;-74
2022/10/31 11:37:20;;;;;;;2.92;1.90;;;16.10;91.70;;;;;;5113699;28;20048;-74
2022/10/31 11:39:53;;;;;;;2.13;1.40;;;16.20;91.60;;;;;;5114812;28;20039;-74
2022/10/31 11:42:22;;;;;;;2.70;1.60;;;16.20;91.60;;;;;;5114691;28;20119;-73
2022/10/31 11:44:48;;;;;;;3.10;1.73;;;16.20;91.60;;;;;;5114677;28;20114;-74
2022/10/31 11:47:16;;;;;;;3.33;1.75;;;16.20;91.60;;;;;;5114690;28;20050;-73
2022/10/31 11:49:45;;;;;;;2.75;1.60;;;16.30;91.60;;;;;;5114110;28;20058;-73
2022/10/31 11:52:17;;;;;;;3.65;1.83;;;16.40;91.60;;;;;;5114420;28;20036;-73
2022/10/31 11:54:59;;;;;;;3.47;1.92;;;16.40;91.60;;;;;;5114686;28;20062;-74
2022/10/31 11:57:30;;;;;;;3.55;1.90;;;16.40;91.50;;;;;;5114641;28;20062;-73
2022/10/31 11:59:59;;;;;;;4.68;1.90;;;16.50;91.50;;;;;;5096236;28;20039;-73
2022/10/31 12:02:26;;;;;;;3.83;1.90;;;16.60;91.40;;;;;;5114355;28;20169;-74
2022/10/31 12:04:59;;;;;;;3.33;2.03;;;16.60;91.40;;;;;;5114238;28;20039;-73
2022/10/31 12:07:25;;;;;;;3.00;1.90;;;16.70;91.40;;;;;;5093739;28;20051;-74
2022/10/31 12:09:51;;;;;;;3.97;1.88;;;16.70;91.40;;;;;;5079559;28;20040;-73
2022/10/31 12:12:45;;;;;;;4.65;2.50;;;16.70;91.40;;;;;;5095946;28;20126;-73
2022/10/31 12:15:30;;;;;;;3.47;2.00;;;16.70;91.30;;;;;;5111900;28;20048;-74
2022/10/31 12:18:22;;;;;;;6.13;2.83;;;16.80;91.30;;;;;;5113658;28;20042;-74
2022/10/31 12:21:18;;;;;;;4.43;2.10;;;16.90;91.30;;;;;;5098658;28;20039;-73
2022/10/31 12:24:08;;;;;;;3.42;1.95;;;16.90;91.20;;;;;;5113848;28;20034;-73
2022/10/31 12:26:51;;;;;;;4.07;1.90;;;16.90;91.20;;;;;;5113945;28;20046;-74
2022/10/31 12:29:45;;;;;;;4.30;2.08;;;16.90;91.10;;;;;;5095250;28;20036;-75
2022/10/31 12:32:29;;;;;;;2.97;1.75;;;17.00;91.20;;;;;;5076203;28;20044;-74
2022/10/31 12:42:12;;;;;;;3.13;1.90;;;17.00;91.20;;;;;;5055558;28;20087;-76
2022/10/31 12:45:00;;;;;;;4.00;1.80;;;17.10;91.20;;;;;;5039667;28;20043;-75
2022/10/31 12:47:49;;;;;;;2.53;1.77;;;17.10;91.20;;;;;;5034892;28;20085;-74
2022/10/31 12:50:49;;;;;;;3.47;1.90;;;17.20;91.10;;;;;;5053583;28;20064;-73
2022/10/31 12:53:53;;;;;;;3.72;1.80;;;17.20;91.10;;;;;;5027719;28;20045;-73
2022/10/31 12:56:42;;;;;;;2.97;1.80;;;17.20;91.00;;;;;;5069982;28;20122;-73
2022/10/31 12:59:36;;;;;;;3.28;1.80;;;17.30;91.00;;;;;;5054392;28;20044;-73
2022/10/31 13:02:22;;;;;;;3.97;2.30;;;17.40;90.90;;;;;;5069043;28;20045;-73
2022/10/31 13:04:58;;;;;;;3.22;2.00;;;17.40;90.90;;;;;;5054597;28;20039;-75
2022/10/31 13:07:40;;;;;;;2.97;1.80;;;17.40;90.90;;;;;;5053489;28;20068;-73
2022/10/31 13:10:19;;;;;;;3.50;2.08;;;17.40;90.90;;;;;;5053890;28;20135;-74
2022/10/31 13:12:49;;;;;;;4.72;2.58;;;17.50;90.90;;;;;;5069745;28;20080;-74
2022/10/31 13:15:43;;;;;;;4.30;2.45;;;17.60;90.80;;;;;;5107283;28;20054;-74
2022/10/31 13:21:59;;;;;;;3.58;2.10;;;17.70;90.70;;;;;;5018101;28;20052;-74
2022/10/31 13:35:53;;;;;;;4.35;2.42;;;17.60;90.70;;;;;;4893100;29;20527;-73